Coastal Nomad — WDC6439 — position and weather

sailwx.info

Track history (hours):
 
Tides and Currents Weather Stations Pressure Air Temp Water Temp Dewpoint Dewpoint Depression Visibility Wind Speed Wind Dir Waves Ship Positions

Coastal Nomad

Owner: Coastal Transportation, Inc., Seattle, WA. More information available from US FCC via Universal Licensing System and Coast Guard Vessel Documentation Center.

Last reported at 2016-Aug-30 16:33 UTC. Time now 2016-Aug-30 17:06 UTC.
Position N 47°39' W 122°22'.

Length 74 m; draft 4 m.

Type: Cargo ship. MMSI: 303683000.

Date/timePositionNaut miles runAvg speedWind from/ knotsBaromVisibWave heightAir tempDewpointWater temp
2016-Aug-30 16:33N 47°39' W 122°22'0 0.0
2016-Aug-30 15:33N 47°39' W 122°22'0 0.0
2016-Aug-30 14:33N 47°39' W 122°22'0 0.0
2016-Aug-30 13:33N 47°39' W 122°22'0 0.0
2016-Aug-30 12:33N 47°39' W 122°22'0 0.0
2016-Aug-30 11:33N 47°39' W 122°22'0 0.0
2016-Aug-30 10:33N 47°39' W 122°22'0 0.0
2016-Aug-30 09:33N 47°39' W 122°22'0 0.0
2016-Aug-30 08:33N 47°39' W 122°22'0 0.0
2016-Aug-30 07:33N 47°39' W 122°22'0 0.0
2016-Aug-30 06:33N 47°39' W 122°22'0 0.0
2016-Aug-30 05:33N 47°39' W 122°22'0 0.0
2016-Aug-30 04:33N 47°39' W 122°22'0 0.0
2016-Aug-30 03:33N 47°39' W 122°22'0 0.0
2016-Aug-30 02:33N 47°39' W 122°22'0 0.0
2016-Aug-30 01:33N 47°39' W 122°22'0 0.0
2016-Aug-30 00:33N 47°39' W 122°22'0 0.0
2016-Aug-29 23:33N 47°39' W 122°22'0 0.0
2016-Aug-29 22:33N 47°39' W 122°22'0 0.0
2016-Aug-29 21:33N 47°39' W 122°22'0 0.0
2016-Aug-29 20:33N 47°39' W 122°22'0 0.0
2016-Aug-29 19:33N 47°39' W 122°22'0 0.0
2016-Aug-29 18:33N 47°39' W 122°22'0 0.0
2016-Aug-29 17:33N 47°39' W 122°22'0 0.0
2016-Aug-29 16:33N 47°39' W 122°22'0 0.0
2016-Aug-29 15:33N 47°39' W 122°22'0 0.0
2016-Aug-29 14:33N 47°39' W 122°22'0 0.0
2016-Aug-29 13:33N 47°39' W 122°22'0 0.0
2016-Aug-29 12:33N 47°39' W 122°22'0 0.0
2016-Aug-29 11:33N 47°39' W 122°22'0 0.0
2016-Aug-29 10:33N 47°39' W 122°22'0 0.0
2016-Aug-29 09:33N 47°39' W 122°22'0 0.0
2016-Aug-29 08:33N 47°39' W 122°22'0 0.0
2016-Aug-29 07:33N 47°39' W 122°22'0 0.0
2016-Aug-29 06:33N 47°39' W 122°22'0 0.0
2016-Aug-29 05:33N 47°39' W 122°22'0 0.0
2016-Aug-29 04:33N 47°39' W 122°22'0 0.0
2016-Aug-29 03:33N 47°39' W 122°22'0 0.0
2016-Aug-29 02:33N 47°39' W 122°22'0 0.0
2016-Aug-29 01:33N 47°39' W 122°22'0 0.0
2016-Aug-29 00:33N 47°39' W 122°22'0 0.0
2016-Aug-28 23:33N 47°39' W 122°22'0 0.0
2016-Aug-28 22:33N 47°39' W 122°22'0 0.0
2016-Aug-28 21:33N 47°39' W 122°22'0 0.0
2016-Aug-28 20:33N 47°39' W 122°22'0 0.0
2016-Aug-28 19:33N 47°39' W 122°22'0 0.0
2016-Aug-28 18:33N 47°39' W 122°22'0 0.0
2016-Aug-28 17:33N 47°39' W 122°22'0 0.0
2016-Aug-28 16:33N 47°39' W 122°22'0 0.0
2016-Aug-28 15:33N 47°39' W 122°22'0 0.2
2016-Aug-28 14:33N 47°40' W 122°23'5 4.6
2016-Aug-28 13:33N 47°44' W 122°26'1110.9
2016-Aug-28 12:33N 47°54' W 122°30'9 8.9
2016-Aug-28 11:34N 48°01' W 122°38'9 8.7
2016-Aug-28 10:33N 48°09' W 122°44'1010.1
2016-Aug-28 09:32N 48°19' W 122°47'1211.9
2016-Aug-28 08:33N 48°31' W 122°45'1111.1
2016-Aug-28 07:33N 48°42' W 122°45'1111.5
2016-Aug-28 06:34N 48°49' W 122°58'1212.0
2016-Aug-28 05:33N 48°56' W 123°12'1212.3
2016-Aug-28 04:33N 49°05' W 123°26'1211.8
2016-Aug-28 03:34N 49°13' W 123°39'1212.0
2016-Aug-28 02:33N 49°20' W 123°54'1111.5
2016-Aug-28 01:33N 49°28' W 124°07'1212.0
2016-Aug-28 00:33N 49°34' W 124°22'1212.1
2016-Aug-27 23:33N 49°41' W 124°38'1211.8
2016-Aug-27 22:33N 49°49' W 124°52'1211.6
2016-Aug-27 21:34N 49°57' W 125°04'1111.2
2016-Aug-27 20:34N 50°05' W 125°17'5 4.9
2016-Aug-27 19:33N 50°09' W 125°21'1111.0
2016-Aug-27 18:33N 50°19' W 125°26'10 9.0
2016-Aug-27 17:30N 50°22' W 125°40'5310.0
2016-Aug-27 12:12N 50°42' W 126°57'811.3
2016-Aug-27 11:31N 50°45' W 127°08'1111.2
2016-Aug-27 10:33N 50°49' W 127°24'1010.0
2016-Aug-27 09:33N 50°54' W 127°38'1010.1
2016-Aug-27 08:33N 50°59' W 127°52'17211.8
2016-Aug-26 18:00N 52°06' W 132°06'58411.9 330 / 301017.3 2.014.4
2016-Aug-24 17:00N 54°24' W 147°54'25211.4 160 / 251022.0 1.1 2.014.4
2016-Aug-23 19:00N 54°54' W 155°06'   180 / 181007.0 1.513.3
Track history (hours):
 
Tides and Currents Weather Stations Pressure Air Temp Water Temp Dewpoint Dewpoint Depression Visibility Wind Speed Wind Dir Waves Ship Positions

Coastal Nomad

Owner: Coastal Transportation, Inc., Seattle, WA. More information available from US FCC via Universal Licensing System and Coast Guard Vessel Documentation Center.

Last reported at 2016-Aug-30 16:33 UTC. Time now 2016-Aug-30 17:06 UTC.
Position N 47°39' W 122°22'.

Length 74 m; draft 4 m.

Type: Cargo ship. MMSI: 303683000.

Date/timePositionNaut miles runAvg speedWind from/ knotsBaromVisibWave heightAir tempDewpointWater temp
2016-Aug-30 16:33N 47°39' W 122°22'0 0.0
2016-Aug-30 15:33N 47°39' W 122°22'0 0.0
2016-Aug-30 14:33N 47°39' W 122°22'0 0.0
2016-Aug-30 13:33N 47°39' W 122°22'0 0.0
2016-Aug-30 12:33N 47°39' W 122°22'0 0.0
2016-Aug-30 11:33N 47°39' W 122°22'0 0.0
2016-Aug-30 10:33N 47°39' W 122°22'0 0.0
2016-Aug-30 09:33N 47°39' W 122°22'0 0.0
2016-Aug-30 08:33N 47°39' W 122°22'0 0.0
2016-Aug-30 07:33N 47°39' W 122°22'0 0.0
2016-Aug-30 06:33N 47°39' W 122°22'0 0.0
2016-Aug-30 05:33N 47°39' W 122°22'0 0.0
2016-Aug-30 04:33N 47°39' W 122°22'0 0.0
2016-Aug-30 03:33N 47°39' W 122°22'0 0.0
2016-Aug-30 02:33N 47°39' W 122°22'0 0.0
2016-Aug-30 01:33N 47°39' W 122°22'0 0.0
2016-Aug-30 00:33N 47°39' W 122°22'0 0.0
2016-Aug-29 23:33N 47°39' W 122°22'0 0.0
2016-Aug-29 22:33N 47°39' W 122°22'0 0.0
2016-Aug-29 21:33N 47°39' W 122°22'0 0.0
2016-Aug-29 20:33N 47°39' W 122°22'0 0.0
2016-Aug-29 19:33N 47°39' W 122°22'0 0.0
2016-Aug-29 18:33N 47°39' W 122°22'0 0.0
2016-Aug-29 17:33N 47°39' W 122°22'0 0.0
2016-Aug-29 16:33N 47°39' W 122°22'0 0.0
2016-Aug-29 15:33N 47°39' W 122°22'0 0.0
2016-Aug-29 14:33N 47°39' W 122°22'0 0.0
2016-Aug-29 13:33N 47°39' W 122°22'0 0.0
2016-Aug-29 12:33N 47°39' W 122°22'0 0.0
2016-Aug-29 11:33N 47°39' W 122°22'0 0.0
2016-Aug-29 10:33N 47°39' W 122°22'0 0.0
2016-Aug-29 09:33N 47°39' W 122°22'0 0.0
2016-Aug-29 08:33N 47°39' W 122°22'0 0.0
2016-Aug-29 07:33N 47°39' W 122°22'0 0.0
2016-Aug-29 06:33N 47°39' W 122°22'0 0.0
2016-Aug-29 05:33N 47°39' W 122°22'0 0.0
2016-Aug-29 04:33N 47°39' W 122°22'0 0.0
2016-Aug-29 03:33N 47°39' W 122°22'0 0.0
2016-Aug-29 02:33N 47°39' W 122°22'0 0.0
2016-Aug-29 01:33N 47°39' W 122°22'0 0.0
2016-Aug-29 00:33N 47°39' W 122°22'0 0.0
2016-Aug-28 23:33N 47°39' W 122°22'0 0.0
2016-Aug-28 22:33N 47°39' W 122°22'0 0.0
2016-Aug-28 21:33N 47°39' W 122°22'0 0.0
2016-Aug-28 20:33N 47°39' W 122°22'0 0.0
2016-Aug-28 19:33N 47°39' W 122°22'0 0.0
2016-Aug-28 18:33N 47°39' W 122°22'0 0.0
2016-Aug-28 17:33N 47°39' W 122°22'0 0.0
2016-Aug-28 16:33N 47°39' W 122°22'0 0.0
2016-Aug-28 15:33N 47°39' W 122°22'0 0.2
2016-Aug-28 14:33N 47°40' W 122°23'5 4.6
2016-Aug-28 13:33N 47°44' W 122°26'1110.9
2016-Aug-28 12:33N 47°54' W 122°30'9 8.9
2016-Aug-28 11:34N 48°01' W 122°38'9 8.7
2016-Aug-28 10:33N 48°09' W 122°44'1010.1
2016-Aug-28 09:32N 48°19' W 122°47'1211.9
2016-Aug-28 08:33N 48°31' W 122°45'1111.1
2016-Aug-28 07:33N 48°42' W 122°45'1111.5
2016-Aug-28 06:34N 48°49' W 122°58'1212.0
2016-Aug-28 05:33N 48°56' W 123°12'1212.3
2016-Aug-28 04:33N 49°05' W 123°26'1211.8
2016-Aug-28 03:34N 49°13' W 123°39'1212.0
2016-Aug-28 02:33N 49°20' W 123°54'1111.5
2016-Aug-28 01:33N 49°28' W 124°07'1212.0
2016-Aug-28 00:33N 49°34' W 124°22'1212.1
2016-Aug-27 23:33N 49°41' W 124°38'1211.8
2016-Aug-27 22:33N 49°49' W 124°52'1211.6
2016-Aug-27 21:34N 49°57' W 125°04'1111.2
2016-Aug-27 20:34N 50°05' W 125°17'5 4.9
2016-Aug-27 19:33N 50°09' W 125°21'1111.0
2016-Aug-27 18:33N 50°19' W 125°26'10 9.0
2016-Aug-27 17:30N 50°22' W 125°40'5310.0
2016-Aug-27 12:12N 50°42' W 126°57'811.3
2016-Aug-27 11:31N 50°45' W 127°08'1111.2
2016-Aug-27 10:33N 50°49' W 127°24'1010.0
2016-Aug-27 09:33N 50°54' W 127°38'1010.1
2016-Aug-27 08:33N 50°59' W 127°52'17211.8
2016-Aug-26 18:00N 52°06' W 132°06'58411.9 330 / 301017.3 2.014.4
2016-Aug-24 17:00N 54°24' W 147°54'25211.4 160 / 251022.0 1.1 2.014.4
2016-Aug-23 19:00N 54°54' W 155°06'   180 / 181007.0 1.513.3

Dump ship's entire track history